sensor_id;sensor_type;location;lat;lon;timestamp;temperature;humidity
55642;DHT22;41509;53.108;6.100;2022-07-17T00:00:43;14.00;99.90
55642;DHT22;41509;53.108;6.100;2022-07-17T00:03:09;14.00;99.90
55642;DHT22;41509;53.108;6.100;2022-07-17T00:05:35;14.00;99.90
55642;DHT22;41509;53.108;6.100;2022-07-17T00:08:01;14.00;99.90
55642;DHT22;41509;53.108;6.100;2022-07-17T00:10:27;13.90;99.90
55642;DHT22;41509;53.108;6.100;2022-07-17T00:12:52;13.90;99.90
55642;DHT22;41509;53.108;6.100;2022-07-17T00:15:18;13.90;99.90
55642;DHT22;41509;53.108;6.100;2022-07-17T00:17:45;13.90;99.90
55642;DHT22;41509;53.108;6.100;2022-07-17T00:20:11;13.90;99.90
55642;DHT22;41509;53.108;6.100;2022-07-17T00:22:36;13.90;99.90
55642;DHT22;41509;53.108;6.100;2022-07-17T00:25:03;13.90;99.90
55642;DHT22;41509;53.108;6.100;2022-07-17T00:27:29;13.90;99.90
55642;DHT22;41509;53.108;6.100;2022-07-17T00:29:54;13.90;99.90
55642;DHT22;41509;53.108;6.100;2022-07-17T00:32:20;13.90;99.90
55642;DHT22;41509;53.108;6.100;2022-07-17T00:34:49;13.90;99.90
55642;DHT22;41509;53.108;6.100;2022-07-17T00:37:14;13.80;99.90
55642;DHT22;41509;53.108;6.100;2022-07-17T00:39:40;13.80;99.90
55642;DHT22;41509;53.108;6.100;2022-07-17T00:42:10;13.80;99.90
55642;DHT22;41509;53.108;6.100;2022-07-17T00:44:36;13.80;99.90
55642;DHT22;41509;53.108;6.100;2022-07-17T00:47:02;13.80;99.90
55642;DHT22;41509;53.108;6.100;2022-07-17T00:49:28;13.70;99.90
55642;DHT22;41509;53.108;6.100;2022-07-17T00:51:53;13.70;99.90
55642;DHT22;41509;53.108;6.100;2022-07-17T00:54:20;13.70;99.90
55642;DHT22;41509;53.108;6.100;2022-07-17T00:56:48;13.60;99.90
55642;DHT22;41509;53.108;6.100;2022-07-17T00:59:15;13.60;99.90
55642;DHT22;41509;53.108;6.100;2022-07-17T01:01:41;13.50;99.90
55642;DHT22;41509;53.108;6.100;2022-07-17T01:04:06;13.50;99.90
55642;DHT22;41509;53.108;6.100;2022-07-17T01:06:32;13.50;99.90
55642;DHT22;41509;53.108;6.100;2022-07-17T01:08:58;13.50;99.90
55642;DHT22;41509;53.108;6.100;2022-07-17T01:11:23;13.50;99.90
55642;DHT22;41509;53.108;6.100;2022-07-17T01:13:49;13.40;99.90
55642;DHT22;41509;53.108;6.100;2022-07-17T01:16:16;13.50;99.90
55642;DHT22;41509;53.108;6.100;2022-07-17T01:18:41;13.50;99.90
55642;DHT22;41509;53.108;6.100;2022-07-17T01:21:07;13.50;99.90
55642;DHT22;41509;53.108;6.100;2022-07-17T01:23:33;13.40;99.90
55642;DHT22;41509;53.108;6.100;2022-07-17T01:25:59;13.40;99.90
55642;DHT22;41509;53.108;6.100;2022-07-17T01:28:24;13.40;99.90
55642;DHT22;41509;53.108;6.100;2022-07-17T01:30:52;13.40;99.90
55642;DHT22;41509;53.108;6.100;2022-07-17T01:33:18;13.40;99.90
55642;DHT22;41509;53.108;6.100;2022-07-17T01:35:44;13.40;99.90
55642;DHT22;41509;53.108;6.100;2022-07-17T01:38:09;13.40;99.90
55642;DHT22;41509;53.108;6.100;2022-07-17T01:40:35;13.30;99.90
55642;DHT22;41509;53.108;6.100;2022-07-17T01:43:01;13.30;99.90
55642;DHT22;41509;53.108;6.100;2022-07-17T01:45:27;13.30;99.90
55642;DHT22;41509;53.108;6.100;2022-07-17T01:47:53;13.20;99.90
55642;DHT22;41509;53.108;6.100;2022-07-17T01:50:18;13.30;99.90
55642;DHT22;41509;53.108;6.100;2022-07-17T01:52:45;13.30;99.90
55642;DHT22;41509;53.108;6.100;2022-07-17T01:55:11;13.30;99.90
55642;DHT22;41509;53.108;6.100;2022-07-17T01:57:38;13.30;99.90
55642;DHT22;41509;53.108;6.100;2022-07-17T02:00:06;13.30;99.90
55642;DHT22;41509;53.108;6.100;2022-07-17T02:02:32;13.30;99.90
55642;DHT22;41509;53.108;6.100;2022-07-17T02:04:57;13.30;99.90
55642;DHT22;41509;53.108;6.100;2022-07-17T02:07:23;13.30;99.90
55642;DHT22;41509;53.108;6.100;2022-07-17T02:09:48;13.30;99.90
55642;DHT22;41509;53.108;6.100;2022-07-17T02:12:14;13.30;99.90
55642;DHT22;41509;53.108;6.100;2022-07-17T02:14:40;13.20;99.90
55642;DHT22;41509;53.108;6.100;2022-07-17T02:17:05;13.30;99.90
55642;DHT22;41509;53.108;6.100;2022-07-17T02:19:31;13.30;99.90
55642;DHT22;41509;53.108;6.100;2022-07-17T02:21:57;13.30;99.90
55642;DHT22;41509;53.108;6.100;2022-07-17T02:24:22;13.20;99.90
55642;DHT22;41509;53.108;6.100;2022-07-17T02:26:48;13.20;99.90
55642;DHT22;41509;53.108;6.100;2022-07-17T02:29:13;13.20;99.90
55642;DHT22;41509;53.108;6.100;2022-07-17T02:31:39;13.20;99.90
55642;DHT22;41509;53.108;6.100;2022-07-17T02:34:04;13.10;99.90
55642;DHT22;41509;53.108;6.100;2022-07-17T02:36:30;13.10;99.90
55642;DHT22;41509;53.108;6.100;2022-07-17T02:38:56;13.10;99.90
55642;DHT22;41509;53.108;6.100;2022-07-17T02:41:22;13.10;99.90
55642;DHT22;41509;53.108;6.100;2022-07-17T02:43:48;13.10;99.90
55642;DHT22;41509;53.108;6.100;2022-07-17T02:46:14;13.10;99.90
55642;DHT22;41509;53.108;6.100;2022-07-17T02:48:40;13.00;99.90
55642;DHT22;41509;53.108;6.100;2022-07-17T02:51:06;13.00;99.90
55642;DHT22;41509;53.108;6.100;2022-07-17T02:53:32;13.00;99.90
55642;DHT22;41509;53.108;6.100;2022-07-17T02:55:58;13.00;99.90
55642;DHT22;41509;53.108;6.100;2022-07-17T02:58:24;12.90;99.90
55642;DHT22;41509;53.108;6.100;2022-07-17T03:00:49;13.00;99.90
55642;DHT22;41509;53.108;6.100;2022-07-17T03:03:15;12.90;99.90
55642;DHT22;41509;53.108;6.100;2022-07-17T03:05:41;12.90;99.90
55642;DHT22;41509;53.108;6.100;2022-07-17T03:08:06;12.90;99.90
55642;DHT22;41509;53.108;6.100;2022-07-17T03:10:32;12.90;99.90
55642;DHT22;41509;53.108;6.100;2022-07-17T03:12:58;12.90;99.90
55642;DHT22;41509;53.108;6.100;2022-07-17T03:15:23;12.90;99.90
55642;DHT22;41509;53.108;6.100;2022-07-17T03:17:49;12.80;99.90
55642;DHT22;41509;53.108;6.100;2022-07-17T03:20:15;12.80;99.90
55642;DHT22;41509;53.108;6.100;2022-07-17T03:22:40;12.80;99.90
55642;DHT22;41509;53.108;6.100;2022-07-17T03:25:07;12.80;99.90
55642;DHT22;41509;53.108;6.100;2022-07-17T03:27:32;12.80;99.90
55642;DHT22;41509;53.108;6.100;2022-07-17T03:29:58;12.80;99.90
55642;DHT22;41509;53.108;6.100;2022-07-17T03:32:23;12.70;99.90
55642;DHT22;41509;53.108;6.100;2022-07-17T03:34:49;12.70;99.90
55642;DHT22;41509;53.108;6.100;2022-07-17T03:37:15;12.70;99.90
55642;DHT22;41509;53.108;6.100;2022-07-17T03:39:41;12.70;99.90
55642;DHT22;41509;53.108;6.100;2022-07-17T03:42:07;12.70;99.90
55642;DHT22;41509;53.108;6.100;2022-07-17T03:44:32;12.70;99.90
55642;DHT22;41509;53.108;6.100;2022-07-17T03:46:58;12.70;99.90
55642;DHT22;41509;53.108;6.100;2022-07-17T03:49:24;12.80;99.90
55642;DHT22;41509;53.108;6.100;2022-07-17T03:51:50;12.80;99.90
55642;DHT22;41509;53.108;6.100;2022-07-17T03:54:15;12.90;99.90
55642;DHT22;41509;53.108;6.100;2022-07-17T03:56:41;12.90;99.90
55642;DHT22;41509;53.108;6.100;2022-07-17T03:59:07;13.00;99.90
55642;DHT22;41509;53.108;6.100;2022-07-17T04:01:32;13.00;99.90
55642;DHT22;41509;53.108;6.100;2022-07-17T04:03:58;13.10;99.90
55642;DHT22;41509;53.108;6.100;2022-07-17T04:06:24;13.10;99.90
55642;DHT22;41509;53.108;6.100;2022-07-17T04:08:49;13.10;99.90
55642;DHT22;41509;53.108;6.100;2022-07-17T04:11:15;13.10;99.90
55642;DHT22;41509;53.108;6.100;2022-07-17T04:13:40;13.10;99.90
55642;DHT22;41509;53.108;6.100;2022-07-17T04:16:06;13.10;99.90
55642;DHT22;41509;53.108;6.100;2022-07-17T04:18:34;13.10;99.90
55642;DHT22;41509;53.108;6.100;2022-07-17T04:21:03;13.20;99.90
55642;DHT22;41509;53.108;6.100;2022-07-17T04:23:28;13.20;99.90
55642;DHT22;41509;53.108;6.100;2022-07-17T04:25:54;13.20;99.90
55642;DHT22;41509;53.108;6.100;2022-07-17T04:28:20;13.20;99.90
55642;DHT22;41509;53.108;6.100;2022-07-17T04:30:46;13.20;99.90
55642;DHT22;41509;53.108;6.100;2022-07-17T04:33:12;13.30;99.90
55642;DHT22;41509;53.108;6.100;2022-07-17T04:35:38;13.30;99.90
55642;DHT22;41509;53.108;6.100;2022-07-17T04:38:04;13.40;99.90
55642;DHT22;41509;53.108;6.100;2022-07-17T04:40:31;13.40;99.90
55642;DHT22;41509;53.108;6.100;2022-07-17T04:42:56;13.40;99.90
55642;DHT22;41509;53.108;6.100;2022-07-17T04:45:22;13.40;99.90
55642;DHT22;41509;53.108;6.100;2022-07-17T04:47:48;13.50;99.90
55642;DHT22;41509;53.108;6.100;2022-07-17T04:50:13;13.50;99.90
55642;DHT22;41509;53.108;6.100;2022-07-17T04:52:39;13.50;99.90
55642;DHT22;41509;53.108;6.100;2022-07-17T04:55:05;13.60;99.90
55642;DHT22;41509;53.108;6.100;2022-07-17T04:57:31;13.60;99.90
55642;DHT22;41509;53.108;6.100;2022-07-17T04:59:57;13.60;99.90
55642;DHT22;41509;53.108;6.100;2022-07-17T05:02:22;13.60;99.90
55642;DHT22;41509;53.108;6.100;2022-07-17T05:04:48;13.60;99.90
55642;DHT22;41509;53.108;6.100;2022-07-17T05:07:17;13.70;99.90
55642;DHT22;41509;53.108;6.100;2022-07-17T05:09:51;13.60;99.90
55642;DHT22;41509;53.108;6.100;2022-07-17T05:12:19;13.70;99.90
55642;DHT22;41509;53.108;6.100;2022-07-17T05:14:48;13.80;99.90
55642;DHT22;41509;53.108;6.100;2022-07-17T05:17:16;13.70;99.90
55642;DHT22;41509;53.108;6.100;2022-07-17T05:19:47;13.70;99.90
55642;DHT22;41509;53.108;6.100;2022-07-17T05:22:15;13.70;99.90
55642;DHT22;41509;53.108;6.100;2022-07-17T05:24:43;13.80;99.90
55642;DHT22;41509;53.108;6.100;2022-07-17T05:27:12;13.80;99.90
55642;DHT22;41509;53.108;6.100;2022-07-17T05:29:46;13.80;99.90
55642;DHT22;41509;53.108;6.100;2022-07-17T05:32:16;13.80;99.90
55642;DHT22;41509;53.108;6.100;2022-07-17T05:34:50;13.90;99.90
55642;DHT22;41509;53.108;6.100;2022-07-17T05:37:22;13.90;99.90
55642;DHT22;41509;53.108;6.100;2022-07-17T05:39:51;13.90;99.90
55642;DHT22;41509;53.108;6.100;2022-07-17T05:42:16;13.90;99.90
55642;DHT22;41509;53.108;6.100;2022-07-17T05:44:50;14.00;99.90
55642;DHT22;41509;53.108;6.100;2022-07-17T05:47:15;14.00;99.90
55642;DHT22;41509;53.108;6.100;2022-07-17T05:49:47;14.00;99.90
55642;DHT22;41509;53.108;6.100;2022-07-17T05:52:18;14.10;99.90
55642;DHT22;41509;53.108;6.100;2022-07-17T05:55:01;14.10;99.90
55642;DHT22;41509;53.108;6.100;2022-07-17T05:57:29;14.10;99.90
55642;DHT22;41509;53.108;6.100;2022-07-17T05:59:58;14.20;99.90
55642;DHT22;41509;53.108;6.100;2022-07-17T06:02:27;14.20;99.90
55642;DHT22;41509;53.108;6.100;2022-07-17T06:04:53;14.30;99.90
55642;DHT22;41509;53.108;6.100;2022-07-17T06:07:27;14.30;99.90
55642;DHT22;41509;53.108;6.100;2022-07-17T06:09:55;14.40;99.90
55642;DHT22;41509;53.108;6.100;2022-07-17T06:12:23;14.50;99.90
55642;DHT22;41509;53.108;6.100;2022-07-17T06:15:15;14.50;99.90
55642;DHT22;41509;53.108;6.100;2022-07-17T06:18:02;14.60;99.90
55642;DHT22;41509;53.108;6.100;2022-07-17T06:20:37;14.70;99.90
55642;DHT22;41509;53.108;6.100;2022-07-17T06:23:20;14.80;99.90
55642;DHT22;41509;53.108;6.100;2022-07-17T06:25:49;14.90;99.90
55642;DHT22;41509;53.108;6.100;2022-07-17T06:28:15;14.90;99.90
55642;DHT22;41509;53.108;6.100;2022-07-17T06:30:46;15.00;99.90
55642;DHT22;41509;53.108;6.100;2022-07-17T06:33:14;15.00;99.90
55642;DHT22;41509;53.108;6.100;2022-07-17T06:35:43;15.00;99.90
55642;DHT22;41509;53.108;6.100;2022-07-17T06:38:17;15.20;99.90
55642;DHT22;41509;53.108;6.100;2022-07-17T06:40:48;15.20;99.90
55642;DHT22;41509;53.108;6.100;2022-07-17T06:43:24;15.30;99.90
55642;DHT22;41509;53.108;6.100;2022-07-17T06:45:50;15.40;99.90
55642;DHT22;41509;53.108;6.100;2022-07-17T06:48:19;15.40;99.90
55642;DHT22;41509;53.108;6.100;2022-07-17T06:50:48;15.50;99.90
55642;DHT22;41509;53.108;6.100;2022-07-17T06:53:16;15.60;99.90
55642;DHT22;41509;53.108;6.100;2022-07-17T06:55:48;15.60;99.90
55642;DHT22;41509;53.108;6.100;2022-07-17T06:58:14;15.80;99.90
55642;DHT22;41509;53.108;6.100;2022-07-17T07:00:45;15.70;99.90
55642;DHT22;41509;53.108;6.100;2022-07-17T07:03:14;15.90;99.90
55642;DHT22;41509;53.108;6.100;2022-07-17T07:05:51;15.90;99.90
55642;DHT22;41509;53.108;6.100;2022-07-17T07:08:19;16.00;99.90
55642;DHT22;41509;53.108;6.100;2022-07-17T07:10:52;16.00;99.90
55642;DHT22;41509;53.108;6.100;2022-07-17T07:13:18;16.10;99.90
55642;DHT22;41509;53.108;6.100;2022-07-17T07:15:47;16.10;99.90
55642;DHT22;41509;53.108;6.100;2022-07-17T07:18:16;16.10;99.90
55642;DHT22;41509;53.108;6.100;2022-07-17T07:20:48;16.20;99.90
55642;DHT22;41509;53.108;6.100;2022-07-17T07:23:24;16.20;99.90
55642;DHT22;41509;53.108;6.100;2022-07-17T07:25:50;16.20;99.90
55642;DHT22;41509;53.108;6.100;2022-07-17T07:28:16;16.30;99.90
55642;DHT22;41509;53.108;6.100;2022-07-17T07:30:53;16.30;99.90
55642;DHT22;41509;53.108;6.100;2022-07-17T07:33:28;16.30;99.90
55642;DHT22;41509;53.108;6.100;2022-07-17T07:36:15;16.20;99.90
55642;DHT22;41509;53.108;6.100;2022-07-17T07:39:07;16.20;99.90
55642;DHT22;41509;53.108;6.100;2022-07-17T07:41:33;16.20;99.90
55642;DHT22;41509;53.108;6.100;2022-07-17T07:43:58;16.20;99.90
55642;DHT22;41509;53.108;6.100;2022-07-17T07:46:27;16.30;99.90
55642;DHT22;41509;53.108;6.100;2022-07-17T07:48:56;16.30;99.90
55642;DHT22;41509;53.108;6.100;2022-07-17T07:51:24;16.50;99.90
55642;DHT22;41509;53.108;6.100;2022-07-17T07:53:52;16.40;99.90
55642;DHT22;41509;53.108;6.100;2022-07-17T07:56:24;16.50;99.90
55642;DHT22;41509;53.108;6.100;2022-07-17T07:58:50;16.50;99.90
55642;DHT22;41509;53.108;6.100;2022-07-17T08:01:26;16.60;99.90
55642;DHT22;41509;53.108;6.100;2022-07-17T08:03:52;16.60;99.90
55642;DHT22;41509;53.108;6.100;2022-07-17T08:06:48;16.70;99.90
55642;DHT22;41509;53.108;6.100;2022-07-17T08:09:14;16.80;99.90
55642;DHT22;41509;53.108;6.100;2022-07-17T08:11:46;16.90;99.90
55642;DHT22;41509;53.108;6.100;2022-07-17T08:14:14;17.00;99.90
55642;DHT22;41509;53.108;6.100;2022-07-17T08:16:51;17.00;99.90
55642;DHT22;41509;53.108;6.100;2022-07-17T08:19:23;17.10;99.90
55642;DHT22;41509;53.108;6.100;2022-07-17T08:21:49;17.10;99.90
55642;DHT22;41509;53.108;6.100;2022-07-17T08:24:19;17.20;99.90
55642;DHT22;41509;53.108;6.100;2022-07-17T08:26:48;17.30;99.90
55642;DHT22;41509;53.108;6.100;2022-07-17T08:29:25;17.30;99.90
55642;DHT22;41509;53.108;6.100;2022-07-17T08:31:59;17.40;99.90
55642;DHT22;41509;53.108;6.100;2022-07-17T08:34:27;17.50;99.90
55642;DHT22;41509;53.108;6.100;2022-07-17T08:36:59;17.60;99.90
55642;DHT22;41509;53.108;6.100;2022-07-17T08:39:27;17.60;99.90
55642;DHT22;41509;53.108;6.100;2022-07-17T08:41:53;17.70;99.90
55642;DHT22;41509;53.108;6.100;2022-07-17T08:44:26;17.80;99.90
55642;DHT22;41509;53.108;6.100;2022-07-17T08:46:53;17.80;99.90
55642;DHT22;41509;53.108;6.100;2022-07-17T08:49:29;17.90;99.90
55642;DHT22;41509;53.108;6.100;2022-07-17T08:52:05;18.00;99.90
55642;DHT22;41509;53.108;6.100;2022-07-17T08:54:33;18.00;99.90
55642;DHT22;41509;53.108;6.100;2022-07-17T08:57:07;18.00;99.90
55642;DHT22;41509;53.108;6.100;2022-07-17T08:59:54;18.10;99.90
55642;DHT22;41509;53.108;6.100;2022-07-17T09:02:30;18.20;99.90
55642;DHT22;41509;53.108;6.100;2022-07-17T09:05:06;18.20;99.90
55642;DHT22;41509;53.108;6.100;2022-07-17T09:07:46;18.30;99.90
55642;DHT22;41509;53.108;6.100;2022-07-17T09:10:30;18.40;99.90
55642;DHT22;41509;53.108;6.100;2022-07-17T09:12:59;18.60;99.90
55642;DHT22;41509;53.108;6.100;2022-07-17T09:15:53;18.70;99.90
55642;DHT22;41509;53.108;6.100;2022-07-17T09:18:17;18.80;99.90
55642;DHT22;41509;53.108;6.100;2022-07-17T09:20:59;18.90;99.90
55642;DHT22;41509;53.108;6.100;2022-07-17T09:23:33;18.90;99.90
55642;DHT22;41509;53.108;6.100;2022-07-17T09:26:04;19.00;99.90
55642;DHT22;41509;53.108;6.100;2022-07-17T09:31:25;19.20;99.90
55642;DHT22;41509;53.108;6.100;2022-07-17T09:33:57;19.30;99.90
55642;DHT22;41509;53.108;6.100;2022-07-17T09:36:29;19.30;99.90
55642;DHT22;41509;53.108;6.100;2022-07-17T09:39:20;19.40;99.90
55642;DHT22;41509;53.108;6.100;2022-07-17T09:41:54;19.40;99.90
55642;DHT22;41509;53.108;6.100;2022-07-17T09:44:22;19.60;99.90
55642;DHT22;41509;53.108;6.100;2022-07-17T09:46:56;19.60;99.90
55642;DHT22;41509;53.108;6.100;2022-07-17T09:49:27;19.60;99.90
55642;DHT22;41509;53.108;6.100;2022-07-17T09:52:19;19.80;99.90
55642;DHT22;41509;53.108;6.100;2022-07-17T09:54:48;20.00;99.90
55642;DHT22;41509;53.108;6.100;2022-07-17T09:57:34;20.00;99.90
55642;DHT22;41509;53.108;6.100;2022-07-17T10:00:16;20.10;99.90
55642;DHT22;41509;53.108;6.100;2022-07-17T10:02:48;20.20;99.90
55642;DHT22;41509;53.108;6.100;2022-07-17T10:05:18;20.30;99.90
55642;DHT22;41509;53.108;6.100;2022-07-17T10:07:49;20.40;99.90
55642;DHT22;41509;53.108;6.100;2022-07-17T10:10:18;20.50;99.90
55642;DHT22;41509;53.108;6.100;2022-07-17T10:13:05;20.60;99.90
55642;DHT22;41509;53.108;6.100;2022-07-17T10:16:13;20.50;99.90
55642;DHT22;41509;53.108;6.100;2022-07-17T10:19:14;20.50;99.90
55642;DHT22;41509;53.108;6.100;2022-07-17T10:22:05;20.60;99.90
55642;DHT22;41509;53.108;6.100;2022-07-17T10:25:03;20.70;99.90
55642;DHT22;41509;53.108;6.100;2022-07-17T10:30:33;20.90;99.90
55642;DHT22;41509;53.108;6.100;2022-07-17T10:33:05;21.00;99.90
55642;DHT22;41509;53.108;6.100;2022-07-17T10:35:48;21.00;99.90
55642;DHT22;41509;53.108;6.100;2022-07-17T10:38:19;21.10;99.90
55642;DHT22;41509;53.108;6.100;2022-07-17T10:41:01;21.20;99.90
55642;DHT22;41509;53.108;6.100;2022-07-17T10:43:45;21.20;99.90
55642;DHT22;41509;53.108;6.100;2022-07-17T10:46:13;21.30;99.90
55642;DHT22;41509;53.108;6.100;2022-07-17T10:48:59;21.40;99.90
55642;DHT22;41509;53.108;6.100;2022-07-17T10:51:31;21.50;99.90
55642;DHT22;41509;53.108;6.100;2022-07-17T10:53:59;21.50;99.90
55642;DHT22;41509;53.108;6.100;2022-07-17T10:56:49;21.60;99.90
55642;DHT22;41509;53.108;6.100;2022-07-17T10:59:18;21.70;99.90
55642;DHT22;41509;53.108;6.100;2022-07-17T11:01:56;21.90;99.90
55642;DHT22;41509;53.108;6.100;2022-07-17T11:04:58;22.00;99.90
55642;DHT22;41509;53.108;6.100;2022-07-17T11:07:30;22.10;99.90
55642;DHT22;41509;53.108;6.100;2022-07-17T11:09:56;22.20;99.90
55642;DHT22;41509;53.108;6.100;2022-07-17T11:12:39;22.20;99.90
55642;DHT22;41509;53.108;6.100;2022-07-17T11:15:07;22.30;99.90
55642;DHT22;41509;53.108;6.100;2022-07-17T11:17:35;22.40;99.90
55642;DHT22;41509;53.108;6.100;2022-07-17T11:20:02;22.50;99.90
55642;DHT22;41509;53.108;6.100;2022-07-17T11:22:28;22.60;99.90
55642;DHT22;41509;53.108;6.100;2022-07-17T11:25:04;22.70;99.90
55642;DHT22;41509;53.108;6.100;2022-07-17T11:27:30;22.70;99.90
55642;DHT22;41509;53.108;6.100;2022-07-17T11:29:56;22.80;99.90
55642;DHT22;41509;53.108;6.100;2022-07-17T11:32:22;22.90;99.90
55642;DHT22;41509;53.108;6.100;2022-07-17T11:34:53;22.90;99.90
55642;DHT22;41509;53.108;6.100;2022-07-17T11:37:21;23.00;99.90
55642;DHT22;41509;53.108;6.100;2022-07-17T11:39:49;23.10;99.90
55642;DHT22;41509;53.108;6.100;2022-07-17T11:42:22;23.30;99.90
55642;DHT22;41509;53.108;6.100;2022-07-17T11:44:55;23.20;99.20
55642;DHT22;41509;53.108;6.100;2022-07-17T11:47:29;23.20;98.30
55642;DHT22;41509;53.108;6.100;2022-07-17T11:50:20;23.20;99.00
55642;DHT22;41509;53.108;6.100;2022-07-17T11:52:47;23.30;96.10
55642;DHT22;41509;53.108;6.100;2022-07-17T11:55:16;23.30;97.70
55642;DHT22;41509;53.108;6.100;2022-07-17T11:57:50;23.40;97.70
55642;DHT22;41509;53.108;6.100;2022-07-17T12:00:17;23.50;96.50
55642;DHT22;41509;53.108;6.100;2022-07-17T12:02:43;23.50;95.90
55642;DHT22;41509;53.108;6.100;2022-07-17T12:05:24;23.60;96.20
55642;DHT22;41509;53.108;6.100;2022-07-17T12:07:59;23.60;93.20
55642;DHT22;41509;53.108;6.100;2022-07-17T12:10:28;23.70;96.50
55642;DHT22;41509;53.108;6.100;2022-07-17T12:13:23;23.80;96.50
55642;DHT22;41509;53.108;6.100;2022-07-17T12:16:18;23.80;94.30
55642;DHT22;41509;53.108;6.100;2022-07-17T12:19:02;23.90;90.60
55642;DHT22;41509;53.108;6.100;2022-07-17T12:21:32;23.90;90.10
55642;DHT22;41509;53.108;6.100;2022-07-17T12:24:07;23.80;91.00
55642;DHT22;41509;53.108;6.100;2022-07-17T12:26:36;23.90;92.50
55642;DHT22;41509;53.108;6.100;2022-07-17T12:29:05;23.90;92.30
55642;DHT22;41509;53.108;6.100;2022-07-17T12:31:33;24.00;90.80
55642;DHT22;41509;53.108;6.100;2022-07-17T12:33:58;24.10;92.70
55642;DHT22;41509;53.108;6.100;2022-07-17T12:36:38;24.30;88.50
55642;DHT22;41509;53.108;6.100;2022-07-17T12:39:04;24.30;90.40
55642;DHT22;41509;53.108;6.100;2022-07-17T12:41:32;24.40;90.10
55642;DHT22;41509;53.108;6.100;2022-07-17T12:44:06;24.40;90.60
55642;DHT22;41509;53.108;6.100;2022-07-17T12:46:32;24.60;90.00
55642;DHT22;41509;53.108;6.100;2022-07-17T12:48:57;24.60;89.80
55642;DHT22;41509;53.108;6.100;2022-07-17T12:51:29;24.70;90.10
55642;DHT22;41509;53.108;6.100;2022-07-17T12:53:55;24.70;87.50
55642;DHT22;41509;53.108;6.100;2022-07-17T12:56:21;24.80;89.40
55642;DHT22;41509;53.108;6.100;2022-07-17T12:58:50;24.80;88.50
55642;DHT22;41509;53.108;6.100;2022-07-17T13:01:16;24.80;88.00
55642;DHT22;41509;53.108;6.100;2022-07-17T13:03:44;24.90;86.40
55642;DHT22;41509;53.108;6.100;2022-07-17T13:06:13;24.90;86.10
55642;DHT22;41509;53.108;6.100;2022-07-17T13:08:49;25.00;83.20
55642;DHT22;41509;53.108;6.100;2022-07-17T13:11:33;25.00;79.90
55642;DHT22;41509;53.108;6.100;2022-07-17T13:13:59;24.90;79.50
55642;DHT22;41509;53.108;6.100;2022-07-17T13:16:24;24.90;81.80
55642;DHT22;41509;53.108;6.100;2022-07-17T13:19:02;24.90;80.60
55642;DHT22;41509;53.108;6.100;2022-07-17T13:21:46;24.90;82.90
55642;DHT22;41509;53.108;6.100;2022-07-17T13:24:12;25.00;82.70
55642;DHT22;41509;53.108;6.100;2022-07-17T13:26:40;25.20;82.70
55642;DHT22;41509;53.108;6.100;2022-07-17T13:29:09;25.20;80.40
55642;DHT22;41509;53.108;6.100;2022-07-17T13:31:41;25.20;79.20
55642;DHT22;41509;53.108;6.100;2022-07-17T13:34:06;25.20;80.40
55642;DHT22;41509;53.108;6.100;2022-07-17T13:36:32;25.40;80.50
55642;DHT22;41509;53.108;6.100;2022-07-17T13:39:04;25.40;80.40
55642;DHT22;41509;53.108;6.100;2022-07-17T13:41:29;25.50;80.60
55642;DHT22;41509;53.108;6.100;2022-07-17T13:43:59;25.40;77.40
55642;DHT22;41509;53.108;6.100;2022-07-17T13:46:28;25.40;76.40
55642;DHT22;41509;53.108;6.100;2022-07-17T13:48:54;25.30;76.80
55642;DHT22;41509;53.108;6.100;2022-07-17T13:51:39;25.40;77.40
55642;DHT22;41509;53.108;6.100;2022-07-17T13:54:06;25.40;77.60
55642;DHT22;41509;53.108;6.100;2022-07-17T13:56:37;25.50;77.30
55642;DHT22;41509;53.108;6.100;2022-07-17T13:59:03;25.70;78.10
55642;DHT22;41509;53.108;6.100;2022-07-17T14:01:32;25.70;75.60
55642;DHT22;41509;53.108;6.100;2022-07-17T14:04:08;25.80;77.10
55642;DHT22;41509;53.108;6.100;2022-07-17T14:06:37;25.80;73.80
55642;DHT22;41509;53.108;6.100;2022-07-17T14:09:03;25.90;74.60
55642;DHT22;41509;53.108;6.100;2022-07-17T14:11:35;26.00;73.10
55642;DHT22;41509;53.108;6.100;2022-07-17T14:14:04;25.90;71.20
55642;DHT22;41509;53.108;6.100;2022-07-17T14:16:30;26.00;73.20
55642;DHT22;41509;53.108;6.100;2022-07-17T14:18:58;26.00;72.20
55642;DHT22;41509;53.108;6.100;2022-07-17T14:21:25;26.00;69.70
55642;DHT22;41509;53.108;6.100;2022-07-17T14:23:51;25.90;70.50
55642;DHT22;41509;53.108;6.100;2022-07-17T14:26:19;26.00;71.70
55642;DHT22;41509;53.108;6.100;2022-07-17T14:28:48;26.00;71.60
55642;DHT22;41509;53.108;6.100;2022-07-17T14:31:16;26.10;73.80
55642;DHT22;41509;53.108;6.100;2022-07-17T14:33:50;26.20;74.60
55642;DHT22;41509;53.108;6.100;2022-07-17T14:36:16;26.20;72.30
55642;DHT22;41509;53.108;6.100;2022-07-17T14:38:47;26.20;72.50
55642;DHT22;41509;53.108;6.100;2022-07-17T14:41:13;26.30;72.20
55642;DHT22;41509;53.108;6.100;2022-07-17T14:43:54;26.40;72.10
55642;DHT22;41509;53.108;6.100;2022-07-17T14:46:26;26.50;73.30
55642;DHT22;41509;53.108;6.100;2022-07-17T14:48:57;26.50;72.60
55642;DHT22;41509;53.108;6.100;2022-07-17T14:51:43;26.50;71.40
55642;DHT22;41509;53.108;6.100;2022-07-17T14:54:08;26.40;69.60
55642;DHT22;41509;53.108;6.100;2022-07-17T14:56:34;26.40;69.80
55642;DHT22;41509;53.108;6.100;2022-07-17T14:59:08;26.30;70.30
55642;DHT22;41509;53.108;6.100;2022-07-17T15:01:36;26.40;69.50
55642;DHT22;41509;53.108;6.100;2022-07-17T15:04:08;26.20;69.30
55642;DHT22;41509;53.108;6.100;2022-07-17T15:06:49;26.10;70.00
55642;DHT22;41509;53.108;6.100;2022-07-17T15:09:20;26.10;69.50
55642;DHT22;41509;53.108;6.100;2022-07-17T15:11:48;26.10;71.80
55642;DHT22;41509;53.108;6.100;2022-07-17T15:17:05;26.00;71.10
55642;DHT22;41509;53.108;6.100;2022-07-17T15:19:31;25.90;70.70
55642;DHT22;41509;53.108;6.100;2022-07-17T15:22:00;26.00;71.90
55642;DHT22;41509;53.108;6.100;2022-07-17T15:24:26;26.10;71.70
55642;DHT22;41509;53.108;6.100;2022-07-17T15:27:01;26.30;71.90
55642;DHT22;41509;53.108;6.100;2022-07-17T15:29:27;26.40;70.10
55642;DHT22;41509;53.108;6.100;2022-07-17T15:31:52;26.50;70.20
55642;DHT22;41509;53.108;6.100;2022-07-17T15:34:26;26.40;66.60
55642;DHT22;41509;53.108;6.100;2022-07-17T15:36:52;26.40;67.60
55642;DHT22;41509;53.108;6.100;2022-07-17T15:39:17;26.50;67.60
55642;DHT22;41509;53.108;6.100;2022-07-17T15:41:44;26.60;68.20
55642;DHT22;41509;53.108;6.100;2022-07-17T15:44:10;26.70;66.80
55642;DHT22;41509;53.108;6.100;2022-07-17T15:46:36;26.80;67.10
55642;DHT22;41509;53.108;6.100;2022-07-17T15:49:01;26.90;67.60
55642;DHT22;41509;53.108;6.100;2022-07-17T15:51:27;26.80;65.90
55642;DHT22;41509;53.108;6.100;2022-07-17T15:53:54;26.80;66.20
55642;DHT22;41509;53.108;6.100;2022-07-17T15:56:21;26.70;65.00